Time;durP1;ratioP1;P1;durP2;ratioP2;P2;SDS_P1;SDS_P2;PMS_P1;PMS_P2;Temp;Humidity;BMP_temperature;BMP_pressure;BME280_temperature;BME280_humidity;BME280_pressure;Samples;Min_cycle;Max_cycle;Signal;HPM_P1;HPM_P2
2021/08/12 00:04:04;;;;;;;13.35;8.80;;;;;;;16.46;79.44;101968.59;10169304;28;20065;-67
2021/08/12 00:09:01;;;;;;;15.10;9.63;;;;;;;16.42;79.80;101976.72;10170355;28;20045;-65
2021/08/12 00:13:57;;;;;;;12.60;8.73;;;;;;;16.38;79.81;101964.69;10142881;28;20101;-65
2021/08/12 00:18:56;;;;;;;11.88;9.10;;;;;;;16.34;80.00;101961.00;10167579;28;20124;-65
2021/08/12 00:23:53;;;;;;;12.40;8.73;;;;;;;16.31;80.04;101953.34;10132068;28;20070;-65
2021/08/12 00:28:49;;;;;;;12.27;8.13;;;;;;;16.24;79.86;101953.03;10163987;28;20056;-65
2021/08/12 00:33:46;;;;;;;13.68;8.48;;;;;;;16.24;80.18;101947.50;10196987;28;20038;-65
2021/08/12 00:38:43;;;;;;;11.38;8.05;;;;;;;16.21;80.35;101951.72;10191162;28;20065;-64
2021/08/12 00:43:39;;;;;;;10.85;8.60;;;;;;;16.14;80.56;101946.69;10196746;28;20416;-65
2021/08/12 00:48:36;;;;;;;11.80;9.13;;;;;;;16.09;80.67;101957.91;10166997;28;20049;-66
2021/08/12 00:53:33;;;;;;;11.07;8.30;;;;;;;16.04;80.60;101954.53;10195313;28;20042;-65
2021/08/12 00:58:34;;;;;;;13.90;8.88;;;;;;;15.98;80.51;101957.41;10124181;28;20085;-64
2021/08/12 01:03:31;;;;;;;11.43;8.65;;;;;;;15.96;80.46;101947.84;10178266;28;20096;-65
2021/08/12 01:09:06;;;;;;;13.00;8.27;;;;;;;15.92;80.94;101952.38;10154814;28;20405;-65
2021/08/12 01:14:16;;;;;;;13.68;8.82;;;;;;;15.87;81.22;101941.50;10108777;28;20043;-67
2021/08/12 01:19:37;;;;;;;10.90;8.27;;;;;;;15.85;81.00;101941.03;10159237;28;20096;-65
2021/08/12 01:24:39;;;;;;;12.07;7.90;;;;;;;15.88;81.23;101940.41;10151364;28;20133;-65
2021/08/12 01:29:51;;;;;;;10.30;7.63;;;;;;;15.88;81.35;101940.41;10156969;28;20050;-65
2021/08/12 01:35:00;;;;;;;12.73;7.55;;;;;;;15.83;81.06;101948.81;10187655;28;20512;-65
2021/08/12 01:39:59;;;;;;;11.98;9.13;;;;;;;15.75;81.19;101942.97;10162431;28;20049;-65
2021/08/12 01:44:58;;;;;;;10.40;8.35;;;;;;;15.70;81.46;101945.88;10185259;28;20046;-65
2021/08/12 01:49:55;;;;;;;10.57;7.00;;;;;;;15.69;81.20;101947.00;10145973;28;20042;-65
2021/08/12 01:54:52;;;;;;;13.25;8.73;;;;;;;15.68;81.09;101948.13;10184412;28;20030;-65
2021/08/12 01:59:49;;;;;;;10.35;8.38;;;;;;;15.65;81.30;101942.47;10125992;28;20041;-65
2021/08/12 02:04:47;;;;;;;11.65;7.93;;;;;;;15.62;81.72;101941.16;10183082;28;20042;-65
2021/08/12 02:09:43;;;;;;;10.55;7.50;;;;;;;15.59;81.75;101933.50;10168064;28;20451;-65
2021/08/12 02:14:40;;;;;;;12.15;9.13;;;;;;;15.59;81.80;101933.50;10181513;28;20050;-64
2021/08/12 02:19:37;;;;;;;9.80;8.15;;;;;;;15.59;81.97;101936.28;10165991;28;20680;-65
2021/08/12 02:24:40;;;;;;;11.60;8.25;;;;;;;15.57;81.94;101933.03;10181057;28;20133;-65
2021/08/12 02:29:37;;;;;;;9.85;7.32;;;;;;;15.55;82.08;101932.56;10130778;28;20101;-65
2021/08/12 02:34:35;;;;;;;10.77;8.82;;;;;;;15.54;82.06;101939.19;10176685;28;20046;-64
2021/08/12 02:39:34;;;;;;;12.93;8.60;;;;;;;15.51;82.41;101937.09;10191379;28;20073;-65
2021/08/12 02:44:32;;;;;;;10.77;8.48;;;;;;;15.47;82.34;101934.16;10146085;28;20070;-65
2021/08/12 02:49:38;;;;;;;9.45;7.45;;;;;;;15.46;82.23;101937.25;10185799;28;20741;-64
2021/08/12 02:54:36;;;;;;;10.65;7.65;;;;;;;15.44;82.15;101931.22;10172948;28;20515;-65
2021/08/12 02:59:34;;;;;;;12.85;8.80;;;;;;;15.42;82.46;101926.03;10165460;28;20097;-65
2021/08/12 03:04:30;;;;;;;12.23;8.23;;;;;;;15.38;82.42;101927.00;10179444;28;20500;-65
2021/08/12 03:09:29;;;;;;;10.63;8.68;;;;;;;15.34;82.34;101924.91;10159772;28;20074;-64
2021/08/12 03:14:30;;;;;;;11.55;8.13;;;;;;;15.29;82.28;101930.56;10172655;28;20459;-65
2021/08/12 03:19:27;;;;;;;14.35;8.65;;;;;;;15.27;82.44;101932.81;10176956;28;20057;-65
2021/08/12 03:24:24;;;;;;;11.45;8.65;;;;;;;15.24;82.24;101938.94;10179193;28;20424;-65
2021/08/12 03:29:21;;;;;;;12.13;8.50;;;;;;;15.21;82.54;101939.59;10187593;28;20570;-64
2021/08/12 03:34:17;;;;;;;13.27;9.38;;;;;;;15.18;82.72;101940.25;10182692;28;20475;-65
2021/08/12 03:39:14;;;;;;;13.35;9.77;;;;;;;15.16;82.75;101948.03;10184361;28;20085;-65
2021/08/12 03:44:11;;;;;;;10.75;8.90;;;;;;;15.12;82.73;101944.28;10182488;28;20435;-65
2021/08/12 03:49:07;;;;;;;9.77;8.77;;;;;;;15.13;82.86;101954.16;10174898;28;20083;-65
2021/08/12 03:54:05;;;;;;;12.02;8.65;;;;;;;15.10;82.85;101949.28;10165855;28;20206;-65
2021/08/12 03:59:02;;;;;;;10.48;8.35;;;;;;;15.08;83.29;101948.78;10175492;28;20125;-64
2021/08/12 04:03:59;;;;;;;14.35;9.25;;;;;;;15.09;83.15;101958.69;10138330;28;20120;-65
2021/08/12 04:08:55;;;;;;;11.63;9.13;;;;;;;15.08;83.19;101951.53;10177643;28;20621;-64
2021/08/12 04:13:52;;;;;;;10.25;8.52;;;;;;;15.10;83.85;101954.78;10162234;28;20066;-66
2021/08/12 04:18:48;;;;;;;11.00;8.45;;;;;;;15.11;83.61;101956.44;10171898;28;20140;-66
2021/08/12 04:23:45;;;;;;;9.88;8.75;;;;;;;15.10;83.63;101954.78;10157370;28;20066;-65
2021/08/12 04:28:41;;;;;;;11.93;10.25;;;;;;;15.11;83.57;101959.19;10159323;28;20078;-66
2021/08/12 04:33:38;;;;;;;11.00;8.90;;;;;;;15.12;83.67;101950.59;10141684;28;20034;-66
2021/08/12 04:38:34;;;;;;;12.15;8.65;;;;;;;15.16;84.15;101948.03;10163578;28;20073;-66
2021/08/12 04:43:31;;;;;;;11.15;8.32;;;;;;;15.18;83.91;101951.28;10189404;28;20080;-66
2021/08/12 04:48:27;;;;;;;12.95;8.68;;;;;;;15.20;84.06;101946.25;10150164;28;20541;-66
2021/08/12 04:53:23;;;;;;;13.63;9.35;;;;;;;15.25;84.33;101951.63;10190482;28;20096;-66
2021/08/12 04:58:20;;;;;;;10.88;8.43;;;;;;;15.32;84.38;101954.72;10133126;28;20052;-66
2021/08/12 05:03:16;;;;;;;12.02;8.68;;;;;;;15.38;84.30;101946.28;10190467;28;20582;-66
2021/08/12 05:08:13;;;;;;;10.90;8.90;;;;;;;15.43;84.55;101959.91;10161792;28;20056;-66
2021/08/12 05:13:10;;;;;;;11.90;9.15;;;;;;;15.52;84.50;101961.53;10177795;28;20034;-66
2021/08/12 05:18:06;;;;;;;13.00;8.30;;;;;;;15.59;83.87;101961.09;10159005;28;20042;-66
2021/08/12 05:23:04;;;;;;;10.27;8.20;;;;;;;15.65;84.03;101961.75;10167092;28;20047;-66
2021/08/12 05:28:00;;;;;;;15.32;8.77;;;;;;;15.68;84.49;101959.16;10157611;28;20509;-65
2021/08/12 05:32:57;;;;;;;10.68;8.25;;;;;;;15.70;84.36;101956.91;10131942;28;20479;-66
2021/08/12 05:37:53;;;;;;;10.93;8.38;;;;;;;15.71;84.69;101947.53;10144500;28;20070;-66
2021/08/12 05:42:49;;;;;;;11.32;8.52;;;;;;;15.72;84.74;101948.34;10194953;28;20096;-66
2021/08/12 05:47:46;;;;;;;10.70;8.13;;;;;;;15.72;85.08;101946.38;10148989;28;20047;-65
2021/08/12 05:52:43;;;;;;;13.13;9.00;;;;;;;15.71;85.26;101947.53;10189485;28;20051;-66
2021/08/12 05:57:39;;;;;;;10.73;7.75;;;;;;;15.73;85.05;101948.03;10155826;28;20050;-66
2021/08/12 06:02:36;;;;;;;10.73;7.45;;;;;;;15.75;84.85;101948.47;10178287;28;20070;-66
2021/08/12 06:07:33;;;;;;;12.10;7.20;;;;;;;15.73;84.52;101942.50;10153922;28;20527;-66
2021/08/12 06:12:29;;;;;;;12.02;7.38;;;;;;;15.84;84.35;101939.41;10169354;28;20098;-66
2021/08/12 06:17:26;;;;;;;11.60;7.75;;;;;;;15.91;84.04;101939.75;10154400;28;20065;-66
2021/08/12 06:22:22;;;;;;;9.55;7.05;;;;;;;15.99;84.23;101944.47;10168295;28;20084;-68
2021/08/12 06:27:19;;;;;;;9.65;7.50;;;;;;;16.06;84.33;101949.47;10154835;28;20505;-66
2021/08/12 06:32:15;;;;;;;8.43;6.90;;;;;;;16.17;82.41;101943.28;10139869;28;20043;-67
2021/08/12 06:37:11;;;;;;;14.93;7.05;;;;;;;16.31;81.17;101942.31;10163278;28;20155;-68
2021/08/12 06:42:08;;;;;;;10.27;6.63;;;;;;;16.46;80.87;101950.06;10186482;28;20100;-67
2021/08/12 06:47:04;;;;;;;9.20;5.95;;;;;;;16.54;79.83;101946.47;10193470;28;20058;-67
2021/08/12 06:52:01;;;;;;;8.65;6.28;;;;;;;16.62;79.32;101948.41;10182630;28;20108;-67
2021/08/12 06:56:57;;;;;;;12.13;6.40;;;;;;;16.75;78.76;101943.81;10159204;28;20051;-67
2021/08/12 07:01:54;;;;;;;11.38;5.82;;;;;;;16.89;78.26;101940.88;10164163;28;20100;-65
2021/08/12 07:06:51;;;;;;;9.23;5.82;;;;;;;17.00;75.71;101942.13;10188074;28;20657;-67
2021/08/12 07:11:50;;;;;;;7.63;5.45;;;;;;;17.15;76.12;101931.66;10182391;28;20116;-66
2021/08/12 07:16:46;;;;;;;8.57;5.28;;;;;;;17.24;75.52;101936.00;10188003;28;20737;-67
2021/08/12 07:21:42;;;;;;;10.60;5.63;;;;;;;17.43;75.02;101932.81;10183437;28;20049;-67
2021/08/12 07:26:41;;;;;;;8.38;5.18;;;;;;;17.66;71.74;101944.38;10174142;28;20134;-67
2021/08/12 07:31:38;;;;;;;8.70;4.93;;;;;;;17.80;72.06;101941.34;10170938;28;20089;-67
2021/08/12 07:36:36;;;;;;;8.07;5.00;;;;;;;17.89;71.86;101938.50;10184855;28;20056;-67
2021/08/12 07:41:33;;;;;;;7.63;4.80;;;;;;;18.06;70.59;101937.56;10177197;28;20048;-67
2021/08/12 07:46:30;;;;;;;8.60;4.78;;;;;;;18.21;71.00;101938.88;10183042;28;20069;-67
2021/08/12 07:51:27;;;;;;;9.82;5.45;;;;;;;18.39;70.72;101932.03;10143661;28;20471;-67
2021/08/12 07:56:24;;;;;;;9.23;4.68;;;;;;;18.48;69.24;101926.41;10189710;28;20124;-67
2021/08/12 08:01:20;;;;;;;9.18;5.00;;;;;;;18.63;69.61;101925.72;10168231;28;20050;-67
2021/08/12 08:06:17;;;;;;;7.53;4.68;;;;;;;18.69;69.08;101929.91;10169662;28;20073;-65
2021/08/12 08:11:15;;;;;;;8.57;4.72;;;;;;;18.72;68.71;101925.63;10192649;28;20065;-65
2021/08/12 08:16:14;;;;;;;9.75;4.20;;;;;;;18.71;69.16;101930.38;10138226;28;20062;-65
2021/08/12 08:21:10;;;;;;;9.52;4.85;;;;;;;18.75;68.89;101940.75;10195582;28;20113;-65
2021/08/12 08:26:07;;;;;;;10.52;4.95;;;;;;;18.82;68.57;101935.47;10180161;28;20066;-65
2021/08/12 08:31:03;;;;;;;7.32;4.50;;;;;;;19.02;67.71;101934.56;10142658;28;20042;-66
2021/08/12 08:36:00;;;;;;;9.77;4.93;;;;;;;19.07;68.18;101928.78;10174448;28;20165;-66
2021/08/12 08:40:57;;;;;;;9.18;4.85;;;;;;;19.31;68.33;101935.50;10132498;28;20505;-66
2021/08/12 08:45:56;;;;;;;7.32;4.57;;;;;;;19.40;68.01;101938.13;10181313;28;20066;-66
2021/08/12 08:50:54;;;;;;;9.32;4.68;;;;;;;19.69;66.60;101939.84;10195159;28;20438;-66
2021/08/12 08:55:50;;;;;;;9.13;4.45;;;;;;;19.76;66.51;101934.53;10158299;28;20505;-66
2021/08/12 09:00:47;;;;;;;10.43;4.90;;;;;;;19.96;67.97;101933.53;10193754;28;20064;-66
2021/08/12 09:05:45;;;;;;;9.77;3.80;;;;;;;20.16;68.70;101925.34;10152259;28;20043;-66
2021/08/12 09:10:41;;;;;;;7.72;4.03;;;;;;;20.44;66.17;101928.09;10117571;28;20070;-66
2021/08/12 09:15:42;;;;;;;6.07;4.18;;;;;;;20.63;65.72;101915.50;10161954;28;20085;-66
2021/08/12 09:20:39;;;;;;;6.63;3.90;;;;;;;20.79;64.17;101913.53;10189928;28;20130;-66
2021/08/12 09:25:41;;;;;;;6.63;4.25;;;;;;;20.98;61.44;101915.59;10169369;28;20141;-66
2021/08/12 09:30:38;;;;;;;8.98;4.20;;;;;;;21.18;61.79;101902.56;10160949;28;20109;-66
2021/08/12 09:35:34;;;;;;;7.40;3.80;;;;;;;21.32;61.06;101907.63;10156419;28;20072;-66
2021/08/12 09:40:31;;;;;;;6.20;4.03;;;;;;;21.54;60.90;101915.34;10140436;28;20519;-67
2021/08/12 09:45:29;;;;;;;6.18;3.90;;;;;;;21.70;60.61;101909.72;10151322;28;20046;-66
2021/08/12 09:50:32;;;;;;;8.23;4.15;;;;;;;21.83;59.72;101913.16;10183199;28;20053;-66
2021/08/12 09:55:36;;;;;;;7.55;4.82;;;;;;;22.16;58.44;101911.81;10173753;28;20050;-66
2021/08/12 10:00:38;;;;;;;6.40;4.20;;;;;;;22.50;57.13;101903.72;10169238;28;20569;-66
2021/08/12 10:05:36;;;;;;;5.85;4.25;;;;;;;22.97;55.79;101916.44;10181173;28;20412;-66
2021/08/12 10:10:33;;;;;;;8.70;4.43;;;;;;;23.59;52.38;101905.81;10194187;28;20061;-66
2021/08/12 10:15:34;;;;;;;7.53;4.15;;;;;;;24.50;52.17;101909.28;10173054;28;20042;-66
2021/08/12 10:20:35;;;;;;;6.22;4.47;;;;;;;25.62;51.13;101899.69;10189258;28;20069;-66
2021/08/12 10:25:34;;;;;;;6.25;4.32;;;;;;;26.80;51.48;101890.75;10154842;28;20074;-66
2021/08/12 10:30:32;;;;;;;7.13;4.13;;;;;;;27.69;48.51;101892.59;10147914;28;20053;-66
2021/08/12 10:35:31;;;;;;;6.65;3.95;;;;;;;28.28;44.26;101898.28;10151331;28;20066;-66
2021/08/12 10:40:31;;;;;;;6.85;3.78;;;;;;;28.68;44.38;101896.00;10133694;28;20105;-66
2021/08/12 10:45:29;;;;;;;9.02;4.75;;;;;;;28.89;45.76;101899.84;10135142;28;20069;-66
2021/08/12 10:50:31;;;;;;;6.78;4.38;;;;;;;29.00;42.78;101886.47;10165884;28;20500;-66
2021/08/12 10:55:28;;;;;;;5.63;3.90;;;;;;;29.37;45.10;101876.44;10181858;28;20077;-66
2021/08/12 11:00:53;;;;;;;7.18;4.40;;;;;;;28.57;40.39;101870.00;10167931;28;20113;-66
2021/08/12 11:06:03;;;;;;;9.60;4.32;;;;;;;28.26;41.37;101877.41;10161956;28;20117;-66
2021/08/12 11:10:59;;;;;;;5.90;4.32;;;;;;;28.07;44.24;101870.31;10188934;28;20050;-66
2021/08/12 11:15:56;;;;;;;6.45;4.13;;;;;;;28.85;41.58;101868.13;10165120;28;20058;-66
2021/08/12 11:20:53;;;;;;;6.45;4.03;;;;;;;28.37;41.16;101871.72;10157363;28;20081;-66
2021/08/12 11:25:53;;;;;;;6.32;4.18;;;;;;;28.41;40.73;101862.06;10148117;28;20049;-66
2021/08/12 11:30:49;;;;;;;9.02;4.72;;;;;;;27.72;43.17;101855.25;10151205;28;20125;-66
2021/08/12 11:36:08;;;;;;;6.45;4.53;;;;;;;27.62;45.09;101859.72;10149065;28;20444;-66
2021/08/12 11:41:05;;;;;;;6.90;4.72;;;;;;;28.16;42.16;101856.59;10173912;28;20502;-66
2021/08/12 11:46:02;;;;;;;6.78;4.45;;;;;;;28.39;41.26;101844.00;10191971;28;20074;-66
2021/08/12 11:51:00;;;;;;;6.78;4.32;;;;;;;28.49;38.64;101851.56;10177403;28;20053;-66
2021/08/12 11:55:57;;;;;;;5.55;3.80;;;;;;;28.37;39.48;101849.22;10183603;28;20528;-66
2021/08/12 12:00:53;;;;;;;7.60;4.10;;;;;;;27.86;39.89;101843.94;10172812;28;20493;-66
2021/08/12 12:05:50;;;;;;;5.57;3.80;;;;;;;27.68;41.12;101848.84;10187451;28;20081;-66
2021/08/12 12:10:47;;;;;;;6.40;4.15;;;;;;;27.20;41.57;101841.00;10188009;28;20053;-66
2021/08/12 12:15:54;;;;;;;5.72;3.78;;;;;;;26.91;42.94;101841.06;10154310;28;20073;-66
2021/08/12 12:20:50;;;;;;;5.78;4.03;;;;;;;26.72;43.10;101827.47;10158741;28;20127;-66
2021/08/12 12:25:49;;;;;;;5.63;4.13;;;;;;;27.02;43.79;101838.22;10153908;28;20081;-66
2021/08/12 12:30:46;;;;;;;6.00;4.07;;;;;;;27.68;40.73;101832.75;10134532;28;20089;-66
2021/08/12 12:35:45;;;;;;;6.10;4.28;;;;;;;28.21;41.98;101836.47;10183995;28;20041;-66
2021/08/12 12:40:47;;;;;;;6.40;4.18;;;;;;;28.64;40.35;101830.53;10160454;28;20471;-66
2021/08/12 12:45:52;;;;;;;6.30;4.20;;;;;;;29.12;39.68;101821.19;10180023;28;20647;-66
2021/08/12 12:50:50;;;;;;;6.10;3.63;;;;;;;28.92;39.30;101817.41;10163139;28;20050;-66
2021/08/12 12:55:51;;;;;;;6.93;4.10;;;;;;;28.20;41.43;101820.84;10176147;28;20093;-66
2021/08/12 13:01:04;;;;;;;6.03;3.90;;;;;;;27.47;42.08;101818.84;10162303;28;20046;-66
2021/08/12 13:06:02;;;;;;;;;;;;;;;27.15;44.09;101827.34;10166489;28;20510;-66
2021/08/12 13:11:13;;;;;;;7.03;4.90;;;;;;;27.27;45.20;101807.31;10192467;28;19921;-66
2021/08/12 13:16:12;;;;;;;6.60;3.85;;;;;;;27.29;44.81;101799.25;10163440;28;20042;-67
2021/08/12 13:21:23;;;;;;;6.10;3.80;;;;;;;26.82;45.52;101799.38;10191981;28;20054;-66
2021/08/12 13:26:31;;;;;;;5.88;3.53;;;;;;;26.41;44.97;101785.81;10144496;28;20093;-66
2021/08/12 13:31:35;;;;;;;6.03;3.90;;;;;;;26.50;48.43;101785.38;10191257;28;20155;-66
2021/08/12 13:36:32;;;;;;;7.68;4.07;;;;;;;26.32;47.00;101771.38;10141232;28;20049;-66
2021/08/12 13:41:30;;;;;;;5.93;3.33;;;;;;;26.27;46.35;101768.16;10186828;28;20089;-66
2021/08/12 13:46:26;;;;;;;5.68;3.72;;;;;;;26.27;45.58;101768.16;10167236;28;20081;-66
2021/08/12 13:51:28;;;;;;;5.30;3.17;;;;;;;26.47;43.26;101771.38;10153134;28;20421;-65
2021/08/12 13:56:24;;;;;;;5.93;3.55;;;;;;;26.48;43.61;101770.97;10169843;28;20050;-66
2021/08/12 14:01:41;;;;;;;6.32;2.65;;;;;;;26.63;43.01;101769.75;10156677;28;20060;-65
2021/08/12 14:06:38;;;;;;;5.13;3.35;;;;;;;26.85;43.35;101776.13;10167675;28;20042;-66
2021/08/12 14:11:35;;;;;;;6.40;2.95;;;;;;;26.54;42.96;101760.97;10121101;28;20070;-65
2021/08/12 14:16:36;;;;;;;5.63;3.45;;;;;;;26.24;44.10;101755.75;10163183;28;20161;-65
2021/08/12 14:21:33;;;;;;;5.50;3.20;;;;;;;25.99;43.64;101752.94;10195365;28;20670;-66
2021/08/12 14:26:31;;;;;;;6.43;3.20;;;;;;;25.81;44.61;101756.50;10176273;28;20081;-66
2021/08/12 14:31:27;;;;;;;6.15;3.72;;;;;;;25.93;43.46;101748.97;10192642;28;20065;-65
2021/08/12 14:36:23;;;;;;;5.72;3.28;;;;;;;26.22;44.94;101750.56;10157023;28;20046;-66
2021/08/12 14:41:20;;;;;;;6.72;3.35;;;;;;;26.44;44.28;101751.34;10187525;28;20074;-65
2021/08/12 14:46:17;;;;;;;7.88;3.63;;;;;;;26.51;43.67;101756.13;10132997;28;20050;-65
2021/08/12 14:51:13;;;;;;;6.03;3.03;;;;;;;26.60;41.80;101753.75;10186732;28;20076;-65
2021/08/12 14:56:10;;;;;;;6.63;3.22;;;;;;;26.68;41.56;101748.13;10186672;28;20073;-65
2021/08/12 15:01:06;;;;;;;5.55;3.30;;;;;;;26.61;40.95;101746.94;10165217;28;20078;-65
2021/08/12 15:06:03;;;;;;;5.60;3.40;;;;;;;26.62;42.51;101751.34;10158762;28;20423;-65
2021/08/12 15:10:59;;;;;;;5.60;3.15;;;;;;;26.60;41.28;101736.91;10148875;28;20082;-66
2021/08/12 15:15:56;;;;;;;5.78;3.17;;;;;;;26.74;41.74;101744.50;10154627;28;20069;-65
2021/08/12 15:20:53;;;;;;;7.47;3.50;;;;;;;26.83;42.23;101738.47;10186339;28;20053;-65
2021/08/12 15:25:50;;;;;;;7.13;3.47;;;;;;;26.83;42.80;101739.28;10193574;28;20069;-65
2021/08/12 15:30:46;;;;;;;5.93;3.40;;;;;;;26.97;43.87;101738.41;10171299;28;20077;-66
2021/08/12 15:35:43;;;;;;;6.40;3.10;;;;;;;26.99;42.49;101727.59;10171535;28;20424;-65
2021/08/12 15:40:40;;;;;;;5.93;3.08;;;;;;;26.92;42.02;101736.03;10166389;28;20050;-66
2021/08/12 15:45:39;;;;;;;7.20;3.55;;;;;;;26.95;41.81;101718.38;10157198;28;20049;-65
2021/08/12 15:50:39;;;;;;;5.97;3.53;;;;;;;26.95;41.10;101723.19;10162443;28;20069;-65
2021/08/12 15:55:36;;;;;;;11.07;4.10;;;;;;;27.00;41.14;101726.38;10144749;28;20077;-65
2021/08/12 16:00:36;;;;;;;5.60;3.30;;;;;;;26.96;41.30;101716.38;10171865;28;20051;-66
2021/08/12 16:05:33;;;;;;;6.20;3.58;;;;;;;26.74;41.58;101718.47;10141007;28;20121;-65
2021/08/12 16:10:30;;;;;;;7.93;4.20;;;;;;;26.81;41.32;101730.44;10165196;28;20126;-65
2021/08/12 16:15:26;;;;;;;6.68;4.10;;;;;;;26.75;41.10;101732.06;10141880;28;20046;-66
2021/08/12 16:20:23;;;;;;;6.63;4.13;;;;;;;26.76;41.67;101716.03;10156232;28;20053;-65
2021/08/12 16:25:20;;;;;;;9.23;5.13;;;;;;;26.73;41.92;101720.44;10141902;28;20042;-65
2021/08/12 16:30:19;;;;;;;9.10;6.28;;;;;;;26.76;41.14;101722.47;10153949;28;20051;-65
2021/08/12 16:35:15;;;;;;;6.90;4.00;;;;;;;26.99;41.82;101713.56;10142519;28;20077;-65
2021/08/12 16:40:12;;;;;;;7.35;3.80;;;;;;;27.14;41.49;101721.91;10152428;28;20094;-65
2021/08/12 16:45:09;;;;;;;7.38;4.05;;;;;;;27.52;40.47;101730.53;10189940;28;20125;-66
2021/08/12 16:50:11;;;;;;;10.55;4.32;;;;;;;27.90;38.94;101723.88;10143071;28;20054;-66
2021/08/12 16:55:08;;;;;;;5.40;3.33;;;;;;;28.48;38.73;101727.00;10188550;28;20555;-66
2021/08/12 17:00:09;;;;;;;6.70;4.20;;;;;;;28.89;38.06;101725.34;10140457;28;20512;-66
2021/08/12 17:05:06;;;;;;;5.60;4.13;;;;;;;28.14;38.90;101729.72;10186912;28;20480;-66
2021/08/12 17:10:04;;;;;;;6.25;3.80;;;;;;;27.55;40.51;101721.28;10135272;28;20084;-66
2021/08/12 17:15:03;;;;;;;6.45;4.03;;;;;;;26.95;40.34;101726.78;10179390;28;20089;-66
2021/08/12 17:19:59;;;;;;;7.97;3.75;;;;;;;26.81;41.25;101724.06;10125437;28;20491;-66
2021/08/12 17:24:56;;;;;;;5.97;4.40;;;;;;;26.50;41.61;101723.69;10180764;28;20046;-66
2021/08/12 17:29:53;;;;;;;8.98;5.53;;;;;;;26.35;42.49;101727.72;10194051;28;20081;-65
2021/08/12 17:34:49;;;;;;;7.90;4.70;;;;;;;26.09;43.02;101724.13;10165453;28;20077;-66
2021/08/12 17:39:46;;;;;;;7.80;3.55;;;;;;;25.95;43.24;101721.34;10155690;28;20104;-66
2021/08/12 17:44:42;;;;;;;7.15;4.15;;;;;;;25.82;44.13;101716.09;10179264;28;20042;-66
2021/08/12 17:49:42;;;;;;;9.65;5.10;;;;;;;25.68;44.46;101716.06;10156431;28;20134;-66
2021/08/12 17:54:39;;;;;;;9.52;4.88;;;;;;;25.53;45.20;101725.63;10163781;28;20042;-66
2021/08/12 17:59:35;;;;;;;6.15;3.97;;;;;;;25.40;45.82;101728.03;10154555;28;20047;-66
2021/08/12 18:04:32;;;;;;;6.93;4.47;;;;;;;25.34;45.91;101730.41;10173474;28;20054;-66
2021/08/12 18:09:28;;;;;;;6.60;4.03;;;;;;;25.31;46.60;101727.59;10148084;28;20085;-66
2021/08/12 18:14:24;;;;;;;7.80;4.20;;;;;;;25.22;47.07;101739.16;10170179;28;20101;-66
2021/08/12 18:19:21;;;;;;;6.50;4.43;;;;;;;25.11;47.52;101739.09;10183820;28;20046;-66
2021/08/12 18:24:18;;;;;;;7.32;4.97;;;;;;;24.98;48.06;101743.44;10175316;28;20077;-66
2021/08/12 18:29:14;;;;;;;11.02;5.25;;;;;;;24.86;49.32;101750.16;10184047;28;20076;-66
2021/08/12 18:34:12;;;;;;;7.40;4.55;;;;;;;24.72;49.93;101759.28;10173456;28;20420;-66
2021/08/12 18:39:08;;;;;;;8.90;5.03;;;;;;;24.57;50.59;101755.56;10189076;28;20516;-66
2021/08/12 18:44:05;;;;;;;7.40;4.95;;;;;;;24.42;51.08;101759.44;10187667;28;20046;-68
2021/08/12 18:49:03;;;;;;;10.13;5.25;;;;;;;24.29;53.77;101772.13;10177916;28;20070;-67
2021/08/12 18:54:00;;;;;;;8.20;5.72;;;;;;;24.19;52.89;101768.06;10162732;28;20064;-68
2021/08/12 18:58:57;;;;;;;9.80;5.07;;;;;;;24.05;52.62;101763.13;10147950;28;20109;-67
2021/08/12 19:03:54;;;;;;;7.97;5.07;;;;;;;23.95;52.96;101763.84;10158762;28;20066;-68
2021/08/12 19:08:50;;;;;;;8.70;5.78;;;;;;;23.83;54.41;101766.91;10142191;28;20050;-68
2021/08/12 19:13:47;;;;;;;7.57;5.03;;;;;;;23.68;54.80;101761.16;10154831;28;20042;-68
2021/08/12 19:18:43;;;;;;;10.95;6.60;;;;;;;23.57;55.17;101765.81;10175577;28;20408;-67
2021/08/12 19:23:40;;;;;;;8.35;5.00;;;;;;;23.46;56.78;101764.88;10188441;28;20076;-67
2021/08/12 19:28:36;;;;;;;8.32;5.13;;;;;;;23.35;57.13;101769.53;10174872;28;20129;-67
2021/08/12 19:33:32;;;;;;;8.15;5.45;;;;;;;23.23;57.35;101763.03;10189073;28;20076;-67
2021/08/12 19:38:29;;;;;;;9.63;5.43;;;;;;;23.11;58.92;101763.25;10152271;28;20084;-67
2021/08/12 19:43:25;;;;;;;10.25;5.78;;;;;;;22.98;59.62;101767.47;10186816;28;20077;-68
2021/08/12 19:48:22;;;;;;;10.20;6.35;;;;;;;22.88;59.73;101758.56;10170982;28;20065;-67
2021/08/12 19:53:19;;;;;;;10.63;7.63;;;;;;;22.77;60.38;101763.19;10187457;28;20468;-67
2021/08/12 19:58:16;;;;;;;11.60;6.60;;;;;;;22.66;61.20;101762.22;10168508;28;20073;-67
2021/08/12 20:03:13;;;;;;;9.45;6.63;;;;;;;22.53;60.39;101764.41;10178566;28;20482;-67
2021/08/12 20:08:16;;;;;;;10.85;6.53;;;;;;;22.42;61.06;101761.47;10165986;28;20519;-67
2021/08/12 20:13:14;;;;;;;11.15;7.57;;;;;;;22.33;61.64;101766.50;10162718;28;20042;-67
2021/08/12 20:18:10;;;;;;;12.55;7.38;;;;;;;22.23;61.88;101762.38;10164346;28;20098;-67
2021/08/12 20:23:07;;;;;;;9.77;6.53;;;;;;;22.17;62.93;101763.03;10134700;28;20134;-67
2021/08/12 20:28:03;;;;;;;10.23;7.75;;;;;;;22.08;63.80;101762.47;10161693;28;20080;-67
2021/08/12 20:33:00;;;;;;;9.60;7.30;;;;;;;21.99;64.27;101766.28;10124624;28;20117;-68
2021/08/12 20:37:56;;;;;;;9.05;7.03;;;;;;;21.96;63.44;101769.03;10158830;28;20571;-67
2021/08/12 20:42:53;;;;;;;10.63;6.93;;;;;;;21.93;63.99;101776.16;10199100;28;20080;-67
2021/08/12 20:47:49;;;;;;;10.13;7.15;;;;;;;21.89;64.16;101777.25;10167557;28;20050;-68
2021/08/12 20:52:47;;;;;;;9.43;7.05;;;;;;;21.82;63.77;101789.84;10196561;28;20401;-68
2021/08/12 20:57:43;;;;;;;12.00;7.63;;;;;;;21.75;64.65;101798.06;10170098;28;20054;-68
2021/08/12 21:02:40;;;;;;;12.02;7.40;;;;;;;21.75;64.26;101813.97;10191314;28;20487;-68
2021/08/12 21:07:37;;;;;;;9.95;6.70;;;;;;;21.74;64.44;101806.78;10148298;28;20575;-68
2021/08/12 21:12:34;;;;;;;14.70;7.90;;;;;;;21.73;64.60;101805.19;10186290;28;20081;-66
2021/08/12 21:17:32;;;;;;;10.25;6.93;;;;;;;21.71;65.17;101813.91;10155041;28;20046;-68
2021/08/12 21:22:28;;;;;;;13.98;7.78;;;;;;;21.68;65.15;101813.84;10169025;28;20564;-70
2021/08/12 21:27:25;;;;;;;10.73;7.70;;;;;;;21.60;65.81;101821.22;10155649;28;20108;-68
2021/08/12 21:32:21;;;;;;;13.20;8.55;;;;;;;21.56;66.56;101818.38;10143253;28;20505;-68
2021/08/12 21:37:18;;;;;;;13.68;8.18;;;;;;;21.47;66.88;101820.59;10155777;28;20082;-67
2021/08/12 21:42:18;;;;;;;10.40;7.90;;;;;;;21.38;66.57;101817.19;10180193;28;20054;-67
2021/08/12 21:47:15;;;;;;;10.32;7.97;;;;;;;21.32;67.73;101824.19;10164343;28;20413;-67
2021/08/12 21:52:12;;;;;;;12.88;8.27;;;;;;;21.24;67.36;101823.25;10169021;28;20077;-67
2021/08/12 21:57:08;;;;;;;11.60;8.77;;;;;;;21.17;68.13;101823.88;10162093;28;20051;-67
2021/08/12 22:02:04;;;;;;;15.02;9.63;;;;;;;21.11;68.29;101839.22;10163801;28;20413;-67
2021/08/12 22:07:01;;;;;;;11.15;8.05;;;;;;;21.05;68.53;101832.38;10167601;28;20073;-68
2021/08/12 22:11:58;;;;;;;13.88;9.50;;;;;;;20.99;68.68;101833.81;10168144;28;20425;-67
2021/08/12 22:16:54;;;;;;;12.93;9.65;;;;;;;20.93;69.37;101840.81;10156715;28;20092;-68
2021/08/12 22:21:51;;;;;;;13.00;9.60;;;;;;;20.87;69.47;101853.38;10157400;28;20047;-67
2021/08/12 22:26:47;;;;;;;13.95;10.18;;;;;;;20.83;69.66;101855.25;10157238;28;20047;-67
2021/08/12 22:31:45;;;;;;;13.07;9.02;;;;;;;20.75;69.52;101863.44;10154244;28;20046;-67
2021/08/12 22:36:42;;;;;;;11.68;9.23;;;;;;;20.69;69.46;101862.09;10168011;28;20058;-68
2021/08/12 22:41:38;;;;;;;12.18;8.82;;;;;;;20.69;69.81;101859.31;10155728;28;20081;-68
2021/08/12 22:46:35;;;;;;;11.30;8.50;;;;;;;20.67;70.08;101861.63;10179543;28;20092;-67